Barstow, California
Current Conditions -  °F | °C
As of 3:50 PM on Monday 20 Oct 2014 (Local Time) from KDAG Reporting Station
Clear Clear  
Wind Chill: 90°   Ceiling: Unl
Heat Index: 90°   Visibility: 10mi
Dew Point: 37°   Wind: 5mph
Humidity: 15%   Direction: 20°NNE
Pressure: 29.83"   Gusts: NA
Location:  34.89°N, 117.02°W
Report Text: KDAG 202250Z AUTO 02004KT 10SM CLR 32/03 A2983 RMK AO2 SLP078 T03220028
Loading
Personal Weather Stations






























Interactive Weather Map New forecast layout! Learn more

10-Day Weather Forecast

Advertisements
Track Severe Weather on mobile